createdAt,value
2018-10-05T00:00:08.955Z,0
2018-10-05T00:00:49.475Z,0
2018-10-05T00:01:30.709Z,0
2018-10-05T00:02:11.308Z,0
2018-10-05T00:02:51.496Z,0
2018-10-05T00:03:31.789Z,0
2018-10-05T00:04:15.082Z,0
2018-10-05T00:04:54.465Z,0
2018-10-05T00:05:38.272Z,0
2018-10-05T00:06:18.278Z,0
2018-10-05T00:06:58.801Z,0
2018-10-05T00:07:39.252Z,0
2018-10-05T00:08:20.169Z,0
2018-10-05T00:09:00.216Z,0
2018-10-05T00:09:40.655Z,0
2018-10-05T00:10:22.785Z,0
2018-10-05T00:11:04.489Z,0
2018-10-05T00:11:44.606Z,0
2018-10-05T00:12:24.957Z,0
2018-10-05T00:13:05.441Z,0
2018-10-05T00:13:45.878Z,0
2018-10-05T00:14:28.538Z,0
2018-10-05T00:15:07.984Z,0
2018-10-05T00:15:48.522Z,0
2018-10-05T00:16:28.868Z,0
2018-10-05T00:17:09.192Z,0
2018-10-05T00:17:50.029Z,0
2018-10-05T00:18:30.144Z,0
2018-10-05T00:19:10.985Z,0
2018-10-05T00:19:51.490Z,0
2018-10-05T00:20:31.875Z,0
2018-10-05T00:21:12.395Z,0
2018-10-05T00:21:52.641Z,0
2018-10-05T00:22:33.151Z,0
2018-10-05T00:23:14.283Z,0
2018-10-05T00:23:54.531Z,0
2018-10-05T00:24:34.924Z,0
2018-10-05T00:25:15.397Z,0
2018-10-05T00:25:55.711Z,0
2018-10-05T00:26:36.106Z,0
2018-10-05T00:27:16.919Z,0
2018-10-05T00:27:57.050Z,0
2018-10-05T00:28:37.514Z,0
2018-10-05T00:29:17.983Z,0
2018-10-05T00:29:58.668Z,0
2018-10-05T00:30:39.365Z,0
2018-10-05T00:31:19.616Z,0
2018-10-05T00:32:00.026Z,0
2018-10-05T00:32:40.990Z,0
2018-10-05T00:33:21.509Z,0
2018-10-05T00:34:02.168Z,0
2018-10-05T00:34:42.690Z,0
2018-10-05T00:35:23.158Z,0
2018-10-05T00:36:03.465Z,0
2018-10-05T00:36:44.256Z,0
2018-10-05T00:37:24.406Z,0
2018-10-05T00:38:04.864Z,0
2018-10-05T00:38:45.212Z,0
2018-10-05T00:39:25.677Z,0
2018-10-05T00:40:06.410Z,0
2018-10-05T00:40:47.094Z,0
2018-10-05T00:41:28.061Z,0
2018-10-05T00:42:08.264Z,0
2018-10-05T00:42:48.774Z,0
2018-10-05T00:43:29.213Z,0
2018-10-05T00:44:10.562Z,0
2018-10-05T00:44:50.678Z,0
2018-10-05T00:45:31.171Z,0
2018-10-05T00:46:11.506Z,0
2018-10-05T00:46:52.055Z,0
2018-10-05T00:47:32.729Z,0
2018-10-05T00:48:13.062Z,0
2018-10-05T00:48:53.920Z,0
2018-10-05T00:49:34.084Z,0
2018-10-05T00:50:14.527Z,0
2018-10-05T00:50:54.993Z,0
2018-10-05T00:51:35.500Z,0
2018-10-05T00:52:15.903Z,0
2018-10-05T00:52:56.332Z,0
2018-10-05T00:53:37.256Z,0
2018-10-05T00:54:17.601Z,0
2018-10-05T00:54:57.966Z,0
2018-10-05T00:55:38.431Z,0
2018-10-05T00:56:18.797Z,0
2018-10-05T00:56:59.267Z,0
2018-10-05T00:57:39.596Z,0
2018-10-05T00:58:20.238Z,0
2018-10-05T00:59:00.580Z,0
2018-10-05T00:59:40.926Z,0
2018-10-05T01:00:21.800Z,0
2018-10-05T01:01:02.257Z,0
2018-10-05T01:01:43.160Z,0
2018-10-05T01:02:23.735Z,0
2018-10-05T01:03:04.030Z,0
2018-10-05T01:03:44.530Z,0
2018-10-05T01:04:25.050Z,0
2018-10-05T01:05:05.512Z,0
2018-10-05T01:05:46.130Z,0
2018-10-05T01:06:26.469Z,0
2018-10-05T01:07:07.131Z,0
2018-10-05T01:07:47.509Z,0
2018-10-05T01:08:28.028Z,0
2018-10-05T01:09:10.248Z,0
2018-10-05T01:09:53.676Z,0
2018-10-05T01:10:33.953Z,0
2018-10-05T01:11:14.444Z,0
2018-10-05T01:11:54.847Z,0
2018-10-05T01:12:35.466Z,0
2018-10-05T01:13:16.113Z,0
2018-10-05T01:13:56.561Z,0
2018-10-05T01:14:37.019Z,0
2018-10-05T01:15:17.527Z,0
2018-10-05T01:15:57.986Z,0
2018-10-05T01:16:38.694Z,0
2018-10-05T01:17:19.123Z,0
2018-10-05T01:17:59.426Z,0
2018-10-05T01:18:39.975Z,0
2018-10-05T01:19:20.381Z,0
2018-10-05T01:20:01.076Z,0
2018-10-05T01:20:42.665Z,0
2018-10-05T01:21:22.898Z,0
2018-10-05T01:22:03.385Z,0
2018-10-05T01:22:44.183Z,0
2018-10-05T01:23:25.197Z,0
2018-10-05T01:24:05.882Z,0
2018-10-05T01:24:46.311Z,0
2018-10-05T01:25:29.845Z,0
2018-10-05T01:26:07.925Z,0
2018-10-05T01:26:48.303Z,0
2018-10-05T01:27:28.949Z,0
2018-10-05T01:28:09.438Z,0
2018-10-05T01:28:49.838Z,0
2018-10-05T01:29:32.511Z,0
2018-10-05T01:30:11.346Z,0
2018-10-05T01:30:52.482Z,0
2018-10-05T01:31:32.549Z,0
2018-10-05T01:32:13.081Z,0
2018-10-05T01:32:56.517Z,0
2018-10-05T01:33:38.376Z,0
2018-10-05T01:34:22.053Z,0
2018-10-05T01:35:01.291Z,0
2018-10-05T01:35:41.644Z,0
2018-10-05T01:36:22.802Z,0
2018-10-05T01:37:03.279Z,0
2018-10-05T01:37:45.473Z,0
2018-10-05T01:38:26.196Z,0
2018-10-05T01:39:06.704Z,0
2018-10-05T01:39:47.177Z,0
2018-10-05T01:40:27.626Z,0
2018-10-05T01:41:07.914Z,0
2018-10-05T01:41:48.314Z,0
2018-10-05T01:42:29.009Z,0
2018-10-05T01:43:09.651Z,0
2018-10-05T01:43:50.514Z,0
2018-10-05T01:44:31.454Z,0
2018-10-05T01:45:11.876Z,0
2018-10-05T01:45:52.614Z,0
2018-10-05T01:46:33.453Z,0
2018-10-05T01:47:13.824Z,0
2018-10-05T01:47:54.329Z,0
2018-10-05T01:48:34.804Z,0
2018-10-05T01:49:17.022Z,0
2018-10-05T01:49:57.777Z,0
2018-10-05T01:50:37.969Z,0
2018-10-05T01:51:20.637Z,0
2018-10-05T01:52:00.048Z,0
2018-10-05T01:52:40.501Z,0
2018-10-05T01:53:21.091Z,0
2018-10-05T01:54:04.072Z,0
2018-10-05T01:54:45.157Z,0
2018-10-05T01:55:26.551Z,0
2018-10-05T01:56:07.275Z,0
2018-10-05T01:56:47.966Z,0
2018-10-05T01:57:28.532Z,0
2018-10-05T01:58:09.213Z,0
2018-10-05T01:58:50.419Z,0
2018-10-05T01:59:30.966Z,0
2018-10-05T02:00:12.156Z,0
2018-10-05T02:00:53.403Z,0
2018-10-05T02:01:35.029Z,0
2018-10-05T02:02:15.285Z,0
2018-10-05T02:02:55.739Z,0
2018-10-05T02:03:36.366Z,0
2018-10-05T02:04:17.591Z,0
2018-10-05T02:04:57.969Z,0
2018-10-05T02:05:38.368Z,0
2018-10-05T02:06:18.766Z,0
2018-10-05T02:06:59.130Z,0
2018-10-05T02:07:39.966Z,0
2018-10-05T02:08:20.116Z,0
2018-10-05T02:09:01.028Z,0
2018-10-05T02:09:41.335Z,0
2018-10-05T02:10:21.868Z,0
2018-10-05T02:11:02.185Z,0
2018-10-05T02:11:42.644Z,0
2018-10-05T02:12:23.110Z,0
2018-10-05T02:13:03.408Z,0
2018-10-05T02:13:44.008Z,0
2018-10-05T02:14:24.323Z,0
2018-10-05T02:15:04.728Z,0
2018-10-05T02:15:45.301Z,0
2018-10-05T02:16:25.621Z,0
2018-10-05T02:17:06.653Z,0
2018-10-05T02:17:47.214Z,0
2018-10-05T02:18:27.519Z,0
2018-10-05T02:19:07.923Z,0
2018-10-05T02:19:50.141Z,0
2018-10-05T02:20:30.252Z,0
2018-10-05T02:21:12.676Z,0
2018-10-05T02:21:53.265Z,0
2018-10-05T02:22:33.735Z,0
2018-10-05T02:23:14.027Z,0
2018-10-05T02:23:54.506Z,0
2018-10-05T02:24:35.193Z,0
2018-10-05T02:25:15.863Z,0
2018-10-05T02:25:56.379Z,0
2018-10-05T02:26:37.173Z,0
2018-10-05T02:27:17.571Z,0
2018-10-05T02:27:57.836Z,0
2018-10-05T02:28:38.857Z,0
2018-10-05T02:29:19.564Z,0
2018-10-05T02:30:00.040Z,0
2018-10-05T02:30:40.536Z,0
2018-10-05T02:31:21.096Z,0
2018-10-05T02:32:02.017Z,0
2018-10-05T02:32:42.429Z,0
2018-10-05T02:33:22.870Z,0
2018-10-05T02:34:03.524Z,0
2018-10-05T02:34:47.734Z,0
2018-10-05T02:35:26.740Z,0
2018-10-05T02:36:07.412Z,0
2018-10-05T02:36:48.702Z,0
2018-10-05T02:37:29.052Z,0
2018-10-05T02:38:09.478Z,0
2018-10-05T02:38:50.062Z,0
2018-10-05T02:39:30.504Z,0
2018-10-05T02:40:10.926Z,0
2018-10-05T02:40:51.752Z,0
2018-10-05T02:41:33.275Z,0
2018-10-05T02:42:13.243Z,0
2018-10-05T02:42:53.681Z,0
2018-10-05T02:43:34.152Z,0
2018-10-05T02:44:14.634Z,0
2018-10-05T02:44:55.053Z,0
2018-10-05T02:45:35.567Z,0
2018-10-05T02:46:15.961Z,0
2018-10-05T02:46:56.468Z,0
2018-10-05T02:47:36.866Z,0
2018-10-05T02:48:17.471Z,0
2018-10-05T02:48:57.939Z,0
2018-10-05T02:49:38.436Z,0
2018-10-05T02:50:19.428Z,0
2018-10-05T02:50:59.379Z,0
2018-10-05T02:51:39.800Z,0
2018-10-05T02:52:20.158Z,0
2018-10-05T02:53:00.546Z,0
2018-10-05T02:53:41.296Z,0
2018-10-05T02:54:21.410Z,0
2018-10-05T02:55:01.965Z,0
2018-10-05T02:55:42.422Z,0
2018-10-05T02:56:23.845Z,0
2018-10-05T02:57:04.928Z,0
2018-10-05T02:57:45.316Z,0
2018-10-05T02:58:25.823Z,0
2018-10-05T02:59:08.306Z,0
2018-10-05T02:59:49.560Z,0
2018-10-05T03:00:30.188Z,0
2018-10-05T03:01:12.940Z,0
2018-10-05T03:01:56.975Z,0
2018-10-05T03:02:36.689Z,0
2018-10-05T03:05:51.191Z,0
2018-10-05T03:06:31.576Z,0
2018-10-05T03:07:12.060Z,0
2018-10-05T03:07:52.559Z,0
2018-10-05T03:08:32.783Z,0
2018-10-05T03:09:13.295Z,0
2018-10-05T03:09:53.662Z,0
2018-10-05T03:10:34.130Z,0
2018-10-05T03:11:14.496Z,0
2018-10-05T03:11:55.047Z,0
2018-10-05T03:12:36.470Z,0
2018-10-05T03:13:16.729Z,0
2018-10-05T03:13:59.403Z,0
2018-10-05T03:14:39.739Z,0
2018-10-05T03:15:20.174Z,0
2018-10-05T03:16:00.553Z,0
2018-10-05T03:16:40.930Z,0
2018-10-05T03:17:21.425Z,0
2018-10-05T03:18:02.112Z,0
2018-10-05T03:18:42.525Z,0
2018-10-05T03:19:23.744Z,0
2018-10-05T03:20:05.671Z,0
2018-10-05T03:20:46.245Z,0
2018-10-05T03:21:26.883Z,0
2018-10-05T03:22:07.259Z,0
2018-10-05T03:22:48.510Z,0
2018-10-05T03:23:28.648Z,0
2018-10-05T03:24:09.226Z,0
2018-10-05T03:24:53.134Z,0
2018-10-05T03:25:33.550Z,0
2018-10-05T03:26:14.032Z,0
2018-10-05T03:26:54.387Z,0
2018-10-05T03:27:35.255Z,0
2018-10-05T03:28:20.059Z,0
2018-10-05T03:29:01.730Z,0
2018-10-05T03:29:46.169Z,0
2018-10-05T03:32:06.325Z,0
2018-10-05T03:32:44.539Z,0
2018-10-05T03:33:25.051Z,0
2018-10-05T03:34:05.382Z,0
2018-10-05T03:38:09.917Z,0
2018-10-05T03:38:49.571Z,0
2018-10-05T03:40:50.665Z,0
2018-10-05T03:41:29.813Z,0
2018-10-05T03:42:10.280Z,0
2018-10-05T03:42:50.610Z,0
2018-10-05T03:43:31.196Z,0
2018-10-05T03:44:11.620Z,0
2018-10-05T03:44:51.971Z,0
2018-10-05T03:45:32.429Z,0
2018-10-05T03:46:12.845Z,0
2018-10-05T03:46:53.228Z,0
2018-10-05T03:47:33.755Z,0
2018-10-05T03:48:14.577Z,0
2018-10-05T03:48:57.940Z,0
2018-10-05T03:49:38.379Z,0
2018-10-05T03:50:18.794Z,0
2018-10-05T03:50:59.762Z,0
2018-10-05T03:51:40.065Z,0
2018-10-05T03:52:20.468Z,0
2018-10-05T03:53:00.919Z,0
2018-10-05T03:53:46.249Z,0
2018-10-05T03:54:26.508Z,0
2018-10-05T03:55:06.929Z,0
2018-10-05T03:55:47.497Z,0
2018-10-05T03:56:27.989Z,0
2018-10-05T03:57:09.999Z,0
2018-10-05T03:57:50.399Z,0
2018-10-05T03:58:30.962Z,0
2018-10-05T03:59:11.387Z,0
2018-10-05T03:59:51.757Z,0
2018-10-05T04:00:32.145Z,0
2018-10-05T04:01:12.612Z,0
2018-10-05T04:01:54.977Z,0
2018-10-05T04:02:37.197Z,0
2018-10-05T04:03:18.310Z,0
2018-10-05T04:06:35.534Z,0
2018-10-05T04:07:15.878Z,0
2018-10-05T04:07:56.344Z,0
2018-10-05T04:08:36.784Z,0
2018-10-05T04:09:17.325Z,0
2018-10-05T04:09:58.503Z,0
2018-10-05T04:10:38.824Z,0
2018-10-05T04:11:19.321Z,0
2018-10-05T04:11:59.831Z,0
2018-10-05T04:12:40.258Z,0
2018-10-05T04:13:21.144Z,0
2018-10-05T04:14:01.397Z,0
2018-10-05T04:14:41.804Z,0
2018-10-05T04:15:22.387Z,0
2018-10-05T04:16:04.215Z,0
2018-10-05T04:16:44.856Z,0
2018-10-05T04:17:25.391Z,0
2018-10-05T04:18:05.819Z,0
2018-10-05T04:18:46.601Z,0
2018-10-05T04:19:26.955Z,0
2018-10-05T04:20:07.235Z,0
2018-10-05T04:20:47.525Z,0
2018-10-05T04:21:28.070Z,0
2018-10-05T04:22:08.457Z,0
2018-10-05T04:22:49.109Z,0
2018-10-05T04:23:29.487Z,0
2018-10-05T04:24:10.185Z,0
2018-10-05T04:24:50.693Z,0
2018-10-05T04:25:31.016Z,0
2018-10-05T04:26:12.266Z,0
2018-10-05T04:26:53.985Z,0
2018-10-05T05:07:47.900Z,0
2018-10-05T05:08:31.307Z,4
2018-10-05T05:09:11.599Z,4
2018-10-05T05:09:52.103Z,0
2018-10-05T05:10:32.710Z,4
2018-10-05T05:11:13.115Z,4
2018-10-05T05:11:53.825Z,4
2018-10-05T05:12:34.012Z,4
2018-10-05T05:13:14.706Z,4
2018-10-05T05:13:55.046Z,8
2018-10-05T05:14:35.739Z,4
2018-10-05T05:15:16.055Z,4
2018-10-05T05:15:56.518Z,4
2018-10-05T05:16:36.983Z,8
2018-10-05T05:17:17.261Z,8
2018-10-05T05:17:57.810Z,12
2018-10-05T05:18:38.172Z,12
2018-10-05T05:19:18.579Z,12
2018-10-05T05:19:59.131Z,16
2018-10-05T05:20:39.454Z,16
2018-10-05T05:21:19.883Z,20
2018-10-05T05:22:00.296Z,16
2018-10-05T05:22:40.718Z,20
2018-10-05T05:23:21.264Z,24
2018-10-05T05:24:01.686Z,24
2018-10-05T05:24:42.071Z,28
2018-10-05T05:25:22.475Z,28
2018-10-05T05:26:02.897Z,32
2018-10-05T05:26:43.338Z,32
2018-10-05T05:27:23.687Z,36
2018-10-05T05:28:04.234Z,40
2018-10-05T05:28:44.830Z,44
2018-10-05T05:29:25.255Z,44
2018-10-05T05:30:05.661Z,48
2018-10-05T05:30:46.127Z,56
2018-10-05T05:31:26.531Z,60
2018-10-05T05:32:06.928Z,60
2018-10-05T05:32:47.321Z,68
2018-10-05T05:33:27.830Z,72
2018-10-05T05:34:08.270Z,76
2018-10-05T05:34:48.652Z,84
2018-10-05T05:35:29.141Z,88
2018-10-05T05:36:09.599Z,96
2018-10-05T05:36:50.094Z,100
2018-10-05T05:37:30.801Z,108
2018-10-05T05:38:11.241Z,112
2018-10-05T05:38:51.688Z,120
2018-10-05T05:39:32.085Z,124
2018-10-05T05:40:12.665Z,132
2018-10-05T05:42:55.597Z,168
2018-10-05T05:43:36.475Z,180
2018-10-05T05:44:16.882Z,188
2018-10-05T05:44:57.551Z,196
2018-10-05T05:45:38.017Z,212
2018-10-05T05:46:18.361Z,232
2018-10-05T05:46:58.942Z,244
2018-10-05T05:47:39.232Z,264
2018-10-05T05:48:19.740Z,288
2018-10-05T05:49:00.233Z,324
2018-10-05T05:49:40.556Z,360
2018-10-05T05:50:21.099Z,396
2018-10-05T05:51:01.672Z,440
2018-10-05T05:51:42.030Z,492
2018-10-05T05:52:22.467Z,540
2018-10-05T05:53:02.945Z,572
2018-10-05T05:53:43.308Z,620
2018-10-05T05:54:23.836Z,668
2018-10-05T05:55:04.434Z,716
2018-10-05T05:55:44.782Z,748
2018-10-05T05:56:25.378Z,816
2018-10-05T05:57:05.656Z,892
2018-10-05T05:57:46.511Z,1012
2018-10-05T05:58:26.645Z,1108
2018-10-05T05:59:07.111Z,1176
2018-10-05T05:59:47.558Z,1240
2018-10-05T06:00:28.040Z,1372
2018-10-05T06:01:08.579Z,1424
2018-10-05T06:01:49.426Z,1536
2018-10-05T06:02:29.821Z,1652
2018-10-05T06:03:10.947Z,1728
2018-10-05T06:03:51.958Z,1828
2018-10-05T06:04:33.372Z,1912
2018-10-05T06:05:13.577Z,2008
2018-10-05T06:05:53.879Z,2124
2018-10-05T06:06:34.347Z,2272
2018-10-05T06:08:59.326Z,2724
2018-10-05T06:09:54.208Z,2868
2018-10-05T06:10:46.140Z,3056
2018-10-05T06:13:34.252Z,3356
2018-10-05T06:14:27.139Z,3444
2018-10-05T06:15:12.564Z,3536
2018-10-05T06:15:52.905Z,3660
2018-10-05T06:16:33.539Z,3776
2018-10-05T06:17:13.993Z,3980
2018-10-05T06:17:54.447Z,4204
2018-10-05T06:18:34.914Z,4332
2018-10-05T06:19:15.309Z,4328
2018-10-05T06:19:55.698Z,4484
2018-10-05T06:20:36.157Z,4752
2018-10-05T06:21:16.623Z,4940
2018-10-05T06:21:57.272Z,5008
2018-10-05T06:22:37.689Z,4988
2018-10-05T06:23:19.876Z,5208
2018-10-05T06:24:00.337Z,5416
2018-10-05T06:24:41.117Z,5472
2018-10-05T06:25:28.644Z,5632
2018-10-05T06:26:05.760Z,5952
2018-10-05T06:26:48.622Z,6188
2018-10-05T06:27:33.189Z,6388
2018-10-05T06:28:13.549Z,6596
2018-10-05T06:28:54.712Z,6768
2018-10-05T06:29:34.805Z,6932
2018-10-05T06:30:15.624Z,7032
2018-10-05T06:30:56.265Z,7124
2018-10-05T06:31:36.479Z,7196
2018-10-05T06:32:17.093Z,7312
2018-10-05T06:32:57.510Z,7380
2018-10-05T06:33:37.815Z,7368
2018-10-05T06:34:18.275Z,7464
2018-10-05T06:34:58.681Z,7640
2018-10-05T06:35:39.243Z,7672
2018-10-05T06:36:19.716Z,7776
2018-10-05T06:37:00.144Z,7984
2018-10-05T06:37:40.575Z,8204
2018-10-05T06:38:21.059Z,8508
2018-10-05T06:39:01.526Z,8700
2018-10-05T06:39:42.017Z,8704
2018-10-05T06:40:23.617Z,8644
2018-10-05T06:41:03.494Z,8644
2018-10-05T06:41:44.065Z,8788
2018-10-05T06:42:24.725Z,8904
2018-10-05T06:43:05.036Z,9132
2018-10-05T06:43:46.058Z,9492
2018-10-05T06:44:26.007Z,9608
2018-10-05T06:45:06.460Z,9776
2018-10-05T06:45:46.918Z,9772
2018-10-05T06:46:27.308Z,9504
2018-10-05T06:47:08.564Z,8848
2018-10-05T06:47:48.222Z,8472
2018-10-05T06:48:28.703Z,8380
2018-10-05T06:49:09.142Z,8780
2018-10-05T06:49:49.706Z,9292
2018-10-05T06:50:30.153Z,10004
2018-10-05T06:51:10.972Z,10604
2018-10-05T06:51:52.162Z,10984
2018-10-05T06:52:33.286Z,11408
2018-10-05T06:53:13.696Z,11464
2018-10-05T06:53:54.454Z,9656
2018-10-05T06:54:35.812Z,7732
2018-10-05T06:55:16.359Z,6736
2018-10-05T06:55:57.255Z,6536
2018-10-05T06:56:37.902Z,6464
2018-10-05T06:57:21.462Z,6608
2018-10-05T06:58:01.070Z,6552
2018-10-05T06:58:41.570Z,6408
2018-10-05T06:59:22.253Z,6384
2018-10-05T07:00:02.792Z,6180
2018-10-05T07:00:45.079Z,6056
2018-10-05T07:01:26.516Z,5648
2018-10-05T07:02:06.389Z,5300
2018-10-05T07:02:48.346Z,5148
2018-10-05T07:03:28.171Z,5168
2018-10-05T07:04:08.954Z,5172
2018-10-05T07:04:51.170Z,5228
2018-10-05T07:05:33.623Z,5280
2018-10-05T07:06:14.140Z,5444
2018-10-05T07:06:54.336Z,5664
2018-10-05T07:07:36.029Z,5760
2018-10-05T07:08:16.893Z,5588
2018-10-05T07:08:57.379Z,5272
2018-10-05T07:09:38.291Z,5060
2018-10-05T07:10:20.115Z,4908
2018-10-05T07:11:00.623Z,4856
2018-10-05T07:11:41.398Z,4924
2018-10-05T07:12:22.596Z,5088
2018-10-05T07:13:12.637Z,5256
2018-10-05T07:13:55.900Z,5580
2018-10-05T07:14:45.295Z,5736
2018-10-05T07:15:27.110Z,5712
2018-10-05T07:16:07.132Z,5572
2018-10-05T07:16:49.381Z,5296
2018-10-05T07:19:17.122Z,4816
2018-10-05T07:20:12.073Z,4756
2018-10-05T07:20:52.409Z,4756
2018-10-05T07:21:33.823Z,4856
2018-10-05T07:22:13.998Z,5048
2018-10-05T07:22:55.138Z,5292
2018-10-05T07:23:36.857Z,5464
2018-10-05T07:24:16.870Z,5692
2018-10-05T07:24:58.326Z,5792
2018-10-05T07:25:38.716Z,5828
2018-10-05T07:26:19.881Z,5896
2018-10-05T07:27:00.641Z,6000
2018-10-05T07:27:41.797Z,5960
2018-10-05T07:28:23.131Z,5876
2018-10-05T07:29:03.853Z,5816
2018-10-05T07:29:44.536Z,5624
2018-10-05T07:30:25.298Z,5388
2018-10-05T07:31:06.785Z,4964
2018-10-05T07:31:52.371Z,4652
2018-10-05T07:34:06.180Z,4152
2018-10-05T07:35:09.985Z,4080
2018-10-05T07:35:53.153Z,4180
2018-10-05T07:36:48.521Z,4052
2018-10-05T07:37:28.936Z,3792
2018-10-05T07:38:10.671Z,3136
2018-10-05T07:38:51.096Z,2444
2018-10-05T07:39:31.685Z,2032
2018-10-05T07:40:13.352Z,1924
2018-10-05T07:40:53.842Z,1888
2018-10-05T07:41:33.487Z,1864
2018-10-05T07:42:14.132Z,1840
2018-10-05T07:42:54.827Z,1816
2018-10-05T07:43:35.384Z,1800
2018-10-05T07:44:15.955Z,1788
2018-10-05T07:44:56.392Z,1776
2018-10-05T07:45:37.019Z,1764
2018-10-05T07:46:17.520Z,1752
2018-10-05T07:46:58.118Z,1744
2018-10-05T07:47:38.848Z,1728
2018-10-05T07:48:19.408Z,1720
2018-10-05T07:49:00.029Z,1708
2018-10-05T07:49:40.441Z,1696
2018-10-05T07:50:21.992Z,1688
2018-10-05T07:51:01.904Z,1680
2018-10-05T07:51:42.386Z,1672
2018-10-05T07:52:22.861Z,1664
2018-10-05T07:53:03.378Z,1664
2018-10-05T07:53:44.076Z,1656
2018-10-05T07:54:34.067Z,1648
2018-10-05T07:56:34.323Z,1632
2018-10-05T07:57:14.987Z,1624
2018-10-05T07:57:55.363Z,1624
2018-10-05T07:58:35.815Z,1616
2018-10-05T07:59:16.808Z,1612
2018-10-05T07:59:57.073Z,1608
2018-10-05T08:00:38.392Z,1600
2018-10-05T08:01:18.947Z,1600
2018-10-05T08:01:59.554Z,1596
2018-10-05T08:02:40.060Z,1596
2018-10-05T08:03:20.989Z,1596
2018-10-05T08:04:01.723Z,1588
2018-10-05T08:04:42.834Z,1592
2018-10-05T08:05:23.137Z,1596
2018-10-05T08:06:03.598Z,1588
2018-10-05T08:06:44.995Z,1588
2018-10-05T08:07:26.326Z,1584
2018-10-05T08:08:06.881Z,1580
2018-10-05T08:08:47.320Z,1584
2018-10-05T08:09:29.634Z,1580
2018-10-05T08:10:11.855Z,1588
2018-10-05T08:10:52.313Z,1584
2018-10-05T08:11:32.398Z,1576
2018-10-05T08:12:13.006Z,1580
2018-10-05T08:12:53.429Z,1576
2018-10-05T08:13:33.895Z,1572
2018-10-05T08:14:16.451Z,1576
2018-10-05T08:14:57.441Z,1572
2018-10-05T08:15:38.477Z,1568
2018-10-05T08:16:19.095Z,1568
2018-10-05T08:16:59.537Z,1568
2018-10-05T08:17:40.273Z,1572
2018-10-05T08:18:20.988Z,1568
2018-10-05T08:19:01.442Z,1568
2018-10-05T08:19:41.968Z,1564
2018-10-05T08:20:22.487Z,1560
2018-10-05T08:21:03.850Z,1560
2018-10-05T08:21:43.498Z,1556
2018-10-05T08:22:23.968Z,1552
2018-10-05T08:23:05.339Z,1552
2018-10-05T08:23:45.771Z,1552
2018-10-05T08:24:26.178Z,1552
2018-10-05T08:25:06.697Z,1552
2018-10-05T08:25:47.018Z,1548
2018-10-05T08:26:27.486Z,1548
2018-10-05T08:27:08.045Z,1548
2018-10-05T08:27:48.519Z,1544
2018-10-05T08:28:28.872Z,1544
2018-10-05T08:29:09.264Z,1544
2018-10-05T08:29:49.698Z,1544
2018-10-05T08:30:30.170Z,1544
2018-10-05T08:31:10.928Z,1544
2018-10-05T08:31:51.182Z,1544
2018-10-05T08:32:31.647Z,1548
2018-10-05T08:33:12.096Z,1548
2018-10-05T08:33:52.553Z,1548
2018-10-05T08:34:34.817Z,1544
2018-10-05T08:35:15.087Z,1544
2018-10-05T08:35:57.063Z,1540
2018-10-05T08:36:37.429Z,1536
2018-10-05T08:37:17.883Z,1536
2018-10-05T08:37:58.431Z,1536
2018-10-05T08:38:39.004Z,1532
2018-10-05T08:39:19.424Z,1528
2018-10-05T08:40:01.524Z,1524
2018-10-05T08:40:41.922Z,1500
2018-10-05T08:41:24.958Z,1524
2018-10-05T08:42:05.358Z,1528
2018-10-05T08:42:45.961Z,1520
2018-10-05T08:43:27.104Z,1448
2018-10-05T08:44:07.500Z,1512
2018-10-05T08:44:47.992Z,1524
2018-10-05T08:45:28.478Z,1524
2018-10-05T08:46:10.969Z,1524
2018-10-05T08:46:51.457Z,1524
2018-10-05T08:47:31.860Z,1520
2018-10-05T08:48:13.070Z,1516
2018-10-05T08:48:52.841Z,1524
2018-10-05T08:49:33.305Z,1524
2018-10-05T08:50:13.904Z,1524
2018-10-05T08:50:54.233Z,1528
2018-10-05T08:51:34.697Z,1524
2018-10-05T08:52:15.263Z,1528
2018-10-05T08:52:55.724Z,1524
2018-10-05T08:53:36.230Z,1524
2018-10-05T08:54:16.901Z,1520
2018-10-05T08:54:57.347Z,1480
2018-10-05T08:55:38.908Z,1520
2018-10-05T08:56:20.251Z,1520
2018-10-05T08:57:01.723Z,1516
2018-10-05T08:57:42.356Z,1520
2018-10-05T08:58:23.063Z,1516
2018-10-05T08:59:03.304Z,1516
2018-10-05T08:59:43.776Z,1520
2018-10-05T09:00:24.316Z,1516
2018-10-05T09:01:04.676Z,1512
2018-10-05T09:03:29.366Z,1508
2018-10-05T09:04:22.127Z,1508
2018-10-05T09:05:15.355Z,1504
2018-10-05T09:06:08.964Z,1508
2018-10-05T09:07:01.335Z,1508
2018-10-05T09:07:53.472Z,1472
2018-10-05T09:08:48.690Z,1456
2018-10-05T09:09:47.486Z,1448
2018-10-05T09:10:41.510Z,1456
2018-10-05T09:11:38.272Z,1432
2018-10-05T09:12:18.828Z,1396
2018-10-05T09:13:00.142Z,1380
2018-10-05T09:13:40.631Z,1484
2018-10-05T09:14:21.081Z,1484
2018-10-05T09:15:01.442Z,1480
2018-10-05T09:15:41.829Z,1476
2018-10-05T09:16:22.364Z,1476
2018-10-05T09:17:03.833Z,1480
2018-10-05T09:17:45.178Z,1480
2018-10-05T09:18:26.259Z,1476
2018-10-05T09:19:06.414Z,1468
2018-10-05T09:19:46.965Z,1460
2018-10-05T09:20:27.631Z,1408
2018-10-05T09:21:08.177Z,1436
2018-10-05T09:21:48.925Z,1440
2018-10-05T09:22:29.397Z,1440
2018-10-05T09:23:10.094Z,1448
2018-10-05T09:23:51.272Z,1460
2018-10-05T09:24:32.112Z,1464
2018-10-05T09:25:12.811Z,1436
2018-10-05T09:25:53.314Z,1448
2018-10-05T09:26:33.777Z,1452
2018-10-05T09:27:14.589Z,1464
2018-10-05T09:27:55.863Z,1464
2018-10-05T09:28:35.782Z,1456
2018-10-05T09:29:16.682Z,1460
2018-10-05T09:29:57.133Z,1460
2018-10-05T09:30:37.724Z,1448
2018-10-05T09:31:18.406Z,1444
2018-10-05T09:31:59.372Z,1444
2018-10-05T09:32:41.520Z,1456
2018-10-05T09:33:33.243Z,1468
2018-10-05T09:34:14.763Z,1440
2018-10-05T09:34:55.393Z,1456
2018-10-05T09:35:36.285Z,1460
2018-10-05T09:36:17.144Z,1464
2018-10-05T09:36:57.769Z,1460
2018-10-05T09:37:38.175Z,1460
2018-10-05T09:38:18.674Z,1456
2018-10-05T09:38:59.758Z,1408
2018-10-05T09:39:40.366Z,1364
2018-10-05T09:40:20.643Z,1436
2018-10-05T09:41:15.781Z,1392
2018-10-05T09:41:56.215Z,1356
2018-10-05T09:42:36.696Z,1324
2018-10-05T09:43:17.056Z,1420
2018-10-05T09:43:57.481Z,1432
2018-10-05T09:44:37.939Z,1456
2018-10-05T09:45:18.455Z,1452
2018-10-05T09:45:58.886Z,1448
2018-10-05T09:46:39.329Z,1388
2018-10-05T09:47:20.089Z,1360
2018-10-05T09:48:00.461Z,1412
2018-10-05T09:48:40.983Z,1424
2018-10-05T09:49:21.350Z,1412
2018-10-05T09:50:01.835Z,1380
2018-10-05T09:50:42.266Z,1400
2018-10-05T09:51:22.710Z,1208
2018-10-05T09:52:03.170Z,1280
2018-10-05T09:52:43.640Z,1424
2018-10-05T09:53:24.133Z,1456
2018-10-05T09:54:04.826Z,1452
2018-10-05T09:54:45.030Z,1448
2018-10-05T09:55:25.410Z,1452
2018-10-05T09:56:05.909Z,1448
2018-10-05T09:56:47.526Z,1444
2018-10-05T09:57:27.932Z,1452
2018-10-05T09:58:08.452Z,1456
2018-10-05T09:58:49.761Z,1380
2018-10-05T09:59:29.392Z,1268
2018-10-05T10:00:09.863Z,1432
2018-10-05T10:00:50.305Z,1428
2018-10-05T10:01:30.921Z,1436
2018-10-05T10:02:11.374Z,1452
2018-10-05T10:02:51.820Z,1436
2018-10-05T10:03:32.299Z,1420
2018-10-05T10:04:12.718Z,1416
2018-10-05T10:04:53.049Z,1412
2018-10-05T10:05:33.473Z,1404
2018-10-05T10:06:13.897Z,1400
2018-10-05T10:06:54.322Z,1416
2018-10-05T10:07:34.729Z,1408
2018-10-05T10:08:15.275Z,1420
2018-10-05T10:08:55.663Z,1408
2018-10-05T10:09:36.277Z,1428
2018-10-05T10:10:16.808Z,1416
2018-10-05T10:10:57.011Z,1408
2018-10-05T10:11:37.472Z,1416
2018-10-05T10:12:17.955Z,1404
2018-10-05T10:12:58.593Z,1376
2018-10-05T10:13:39.063Z,1360
2018-10-05T10:14:19.376Z,1360
2018-10-05T10:14:59.854Z,1400
2018-10-05T10:15:40.325Z,1404
2018-10-05T10:16:21.736Z,1404
2018-10-05T10:17:02.156Z,1412
2018-10-05T10:17:42.612Z,1396
2018-10-05T10:18:23.143Z,1400
2018-10-05T10:19:04.270Z,1372
2018-10-05T10:19:44.106Z,1420
2018-10-05T10:20:24.553Z,1444
2018-10-05T10:21:05.104Z,1444
2018-10-05T10:21:45.417Z,1440
2018-10-05T10:22:26.862Z,1440
2018-10-05T10:28:14.194Z,1420
2018-10-05T11:07:29.966Z,1388
2018-10-05T11:08:10.367Z,1388
2018-10-05T11:08:50.762Z,1388
2018-10-05T11:09:31.148Z,1392
2018-10-05T11:10:12.082Z,1324
2018-10-05T11:10:53.489Z,1400
2018-10-05T11:11:33.891Z,1356
2018-10-05T11:12:14.252Z,1392
2018-10-05T11:14:34.174Z,1312
2018-10-05T11:20:25.788Z,1308
2018-10-05T11:21:06.204Z,1296
2018-10-05T11:21:46.645Z,1320
2018-10-05T11:22:27.133Z,1316
2018-10-05T11:23:07.568Z,1304
2018-10-05T11:23:48.009Z,1332
2018-10-05T11:24:28.388Z,1252
2018-10-05T11:25:08.792Z,1228
2018-10-05T11:25:49.172Z,1332
2018-10-05T11:26:29.694Z,1328
2018-10-05T11:27:10.103Z,1328
2018-10-05T11:27:50.499Z,1324
2018-10-05T11:28:30.917Z,1324
2018-10-05T11:29:11.513Z,1320